createdAt,value
2022-11-10T00:02:10.275Z,100539.88
2022-11-10T00:04:55.397Z,100546.06
2022-11-10T00:07:40.833Z,100551.38
2022-11-10T00:10:26.190Z,100554.88
2022-11-10T00:13:11.249Z,100550.47
2022-11-10T00:16:21.049Z,100569.94
2022-11-10T00:19:06.325Z,100567.28
2022-11-10T00:21:51.634Z,100568.16
2022-11-10T00:24:36.654Z,100569.03
2022-11-10T00:27:22.093Z,100567.25
2022-11-10T00:30:07.633Z,100569.91
2022-11-10T00:32:52.829Z,100575.19
2022-11-10T00:35:37.784Z,100583.16
2022-11-10T00:38:22.846Z,100581.38
2022-11-10T00:41:08.017Z,100585.81
2022-11-10T00:43:53.579Z,100590.22
2022-11-10T00:46:39.054Z,100599.06
2022-11-10T00:49:24.244Z,100589.31
2022-11-10T00:52:09.185Z,100595.53
2022-11-10T00:54:54.416Z,100597.28
2022-11-10T00:57:39.543Z,100602.56
2022-11-10T01:00:24.552Z,100602.56
2022-11-10T01:03:14.325Z,100607.00
2022-11-10T01:06:04.181Z,100614.94
2022-11-10T01:08:49.637Z,100608.78
2022-11-10T01:11:34.918Z,100617.59
2022-11-10T01:14:19.857Z,100626.47
2022-11-10T01:17:05.559Z,100629.09
2022-11-10T01:19:50.568Z,100633.53
2022-11-10T01:22:35.945Z,100641.47
2022-11-10T01:25:21.277Z,100640.59
2022-11-10T01:28:06.515Z,100637.91
2022-11-10T01:30:59.526Z,100647.66
2022-11-10T01:33:45.113Z,100658.28
2022-11-10T01:36:30.229Z,100650.31
2022-11-10T01:39:15.143Z,100666.22
2022-11-10T01:42:00.211Z,100664.44
2022-11-10T01:45:23.192Z,100657.38
2022-11-10T01:48:12.500Z,100662.66
2022-11-10T01:51:03.162Z,100663.53
2022-11-10T01:53:53.529Z,100668.81
2022-11-10T01:56:45.251Z,100669.66
2022-11-10T01:59:34.724Z,100668.75
2022-11-10T02:02:28.520Z,100664.28
2022-11-10T02:05:13.611Z,100673.06
2022-11-10T02:08:00.436Z,100670.34
2022-11-10T02:10:45.537Z,100675.59
2022-11-10T02:13:30.900Z,100679.94
2022-11-10T02:16:16.326Z,100678.06
2022-11-10T02:19:20.508Z,100682.38
2022-11-10T02:22:05.782Z,100693.72
2022-11-10T02:24:51.436Z,100699.81
2022-11-10T02:27:36.692Z,100697.97
2022-11-10T02:30:26.590Z,100699.63
2022-11-10T02:33:12.678Z,100707.53
2022-11-10T02:35:58.165Z,100711.94
2022-11-10T02:38:43.319Z,100723.47
2022-11-10T02:41:28.303Z,100719.09
2022-11-10T02:44:13.635Z,100719.06
2022-11-10T02:46:58.677Z,100731.28
2022-11-10T02:49:45.069Z,100734.78
2022-11-10T02:52:30.197Z,100736.44
2022-11-10T02:55:15.125Z,100735.50
2022-11-10T02:58:00.136Z,100742.50
2022-11-10T03:00:45.542Z,100728.28
2022-11-10T03:03:30.798Z,100740.56
2022-11-10T03:06:15.813Z,100729.84
2022-11-10T03:09:01.608Z,100752.72
2022-11-10T03:11:46.521Z,100741.09
2022-11-10T03:14:31.640Z,100745.44
2022-11-10T03:17:16.687Z,100741.84
2022-11-10T03:20:02.000Z,100740.91
2022-11-10T03:22:47.790Z,100759.34
2022-11-10T03:25:34.294Z,100752.25
2022-11-10T03:28:19.655Z,100753.06
2022-11-10T03:31:04.851Z,100765.34
2022-11-10T03:33:49.917Z,100763.50
2022-11-10T03:36:35.120Z,100762.56
2022-11-10T03:39:20.005Z,100761.63
2022-11-10T03:42:05.619Z,100766.88
2022-11-10T03:44:50.918Z,100766.78
2022-11-10T03:47:36.393Z,100776.44
2022-11-10T03:50:21.741Z,100771.09
2022-11-10T03:53:07.238Z,100764.91
2022-11-10T03:55:52.336Z,100784.16
2022-11-10T03:58:37.922Z,100787.69
2022-11-10T04:01:24.073Z,100785.88
2022-11-10T04:04:30.552Z,100792.00
2022-11-10T04:07:34.259Z,100798.06
2022-11-10T04:10:19.414Z,100798.94
2022-11-10T04:13:23.419Z,100798.06
2022-11-10T04:16:08.829Z,100800.63
2022-11-10T04:18:53.780Z,100806.78
2022-11-10T04:21:38.751Z,100804.03
2022-11-10T04:24:23.940Z,100812.81
2022-11-10T04:27:09.017Z,100823.41
2022-11-10T04:29:53.929Z,100827.75
2022-11-10T04:32:39.254Z,100829.50
2022-11-10T04:35:24.181Z,100831.19
2022-11-10T04:38:09.096Z,100834.63
2022-11-10T04:40:54.581Z,100829.25
2022-11-10T04:43:40.067Z,100837.22
2022-11-10T04:46:51.350Z,100852.13
2022-11-10T04:49:36.286Z,100855.66
2022-11-10T04:52:21.153Z,100849.44
2022-11-10T04:55:06.971Z,100863.50
2022-11-10T04:57:51.893Z,100878.50
2022-11-10T05:00:37.342Z,100885.56
2022-11-10T05:03:23.012Z,100882.03
2022-11-10T05:06:08.787Z,100895.19
2022-11-10T05:08:54.206Z,100896.09
2022-11-10T05:11:39.132Z,100891.72
2022-11-10T05:14:24.036Z,100897.81
2022-11-10T05:17:09.255Z,100896.94
2022-11-10T05:19:54.390Z,100903.97
2022-11-10T05:22:39.621Z,100891.56
2022-11-10T05:25:24.556Z,100909.13
2022-11-10T05:28:11.856Z,100916.13
2022-11-10T05:30:56.933Z,100914.34
2022-11-10T05:33:41.895Z,100918.66
2022-11-10T05:36:26.949Z,100911.63
2022-11-10T05:39:11.931Z,100912.44
2022-11-10T05:41:57.298Z,100922.09
2022-11-10T05:44:42.210Z,100930.91
2022-11-10T05:47:27.087Z,100928.22
2022-11-10T05:50:12.391Z,100940.53
2022-11-10T05:52:57.469Z,100944.88
2022-11-10T05:55:42.664Z,100940.50
2022-11-10T05:58:28.048Z,100948.31
2022-11-10T06:01:13.107Z,100956.28
2022-11-10T06:03:58.230Z,100950.16
2022-11-10T06:06:43.129Z,100960.75
2022-11-10T06:09:28.645Z,100970.50
2022-11-10T06:12:13.927Z,100981.09
2022-11-10T06:14:59.606Z,100986.44
2022-11-10T06:17:44.989Z,100987.34
2022-11-10T06:20:30.309Z,100990.00
2022-11-10T06:23:15.787Z,100993.56
2022-11-10T06:26:01.088Z,101010.38
2022-11-10T06:28:46.410Z,100999.88
2022-11-10T06:31:31.472Z,101009.63
2022-11-10T06:34:16.730Z,101007.94
2022-11-10T06:37:01.492Z,101005.31
2022-11-10T06:39:47.463Z,101016.75
2022-11-10T06:42:33.402Z,101023.78
2022-11-10T06:45:18.488Z,101031.69
2022-11-10T06:48:07.062Z,101030.03
2022-11-10T06:50:52.261Z,101033.56
2022-11-10T06:53:37.619Z,101038.88
2022-11-10T06:56:22.743Z,101045.09
2022-11-10T06:59:07.741Z,101047.78
2022-11-10T07:01:52.766Z,101047.91
2022-11-10T07:04:37.854Z,101055.13
2022-11-10T07:07:22.991Z,101063.19
2022-11-10T07:10:08.679Z,101067.69
2022-11-10T07:13:03.118Z,101078.41
2022-11-10T07:15:48.525Z,101098.84
2022-11-10T07:18:37.463Z,101108.66
2022-11-10T07:21:22.363Z,101115.88
2022-11-10T07:24:07.814Z,101111.59
2022-11-10T07:26:53.050Z,101117.97
2022-11-10T07:29:38.352Z,101119.94
2022-11-10T07:32:23.399Z,101132.53
2022-11-10T07:35:08.709Z,101114.22
2022-11-10T07:37:57.882Z,101124.09
2022-11-10T07:40:43.121Z,101148.88
2022-11-10T07:43:28.407Z,101144.63
2022-11-10T07:46:13.378Z,101141.13
2022-11-10T07:48:58.576Z,101150.78
2022-11-10T07:51:43.888Z,101152.59
2022-11-10T07:54:28.785Z,101157.91
2022-11-10T07:57:13.991Z,101160.53
2022-11-10T07:59:59.601Z,101153.41
2022-11-10T08:02:44.931Z,101162.25
2022-11-10T08:05:29.991Z,101169.31
2022-11-10T08:08:14.964Z,101175.56
2022-11-10T08:10:59.831Z,101168.66
2022-11-10T08:13:45.312Z,101162.53
2022-11-10T08:16:30.503Z,101193.63
2022-11-10T08:19:15.534Z,101192.00
2022-11-10T08:22:01.011Z,101201.81
2022-11-10T08:24:45.978Z,101195.75
2022-11-10T08:27:31.330Z,101212.56
2022-11-10T08:30:16.620Z,101213.50
2022-11-10T08:33:03.014Z,101218.81
2022-11-10T08:35:50.188Z,101222.44
2022-11-10T08:38:35.945Z,101229.75
2022-11-10T08:41:21.275Z,101241.34
2022-11-10T08:44:10.706Z,101230.75
2022-11-10T08:46:56.439Z,101232.78
2022-11-10T08:49:41.898Z,101241.91
2022-11-10T08:52:27.633Z,101244.03
2022-11-10T08:55:12.935Z,101243.38
2022-11-10T08:58:00.685Z,101232.72
2022-11-10T09:00:46.038Z,101244.34
2022-11-10T09:03:31.421Z,101248.84
2022-11-10T09:06:16.824Z,101252.50
2022-11-10T09:09:01.870Z,101255.19
2022-11-10T09:11:47.210Z,101259.84
2022-11-10T09:14:32.024Z,101262.66
2022-11-10T09:17:17.049Z,101263.75
2022-11-10T09:20:02.482Z,101267.47
2022-11-10T09:22:48.019Z,101263.34
2022-11-10T09:25:34.144Z,101273.28
2022-11-10T09:28:20.074Z,101270.75
2022-11-10T09:31:04.969Z,101276.28
2022-11-10T09:33:50.133Z,101287.03
2022-11-10T09:36:35.563Z,101280.91
2022-11-10T09:39:21.072Z,101287.97
2022-11-10T09:42:20.641Z,101299.66
2022-11-10T09:45:06.207Z,101308.63
2022-11-10T09:48:00.475Z,101312.22
2022-11-10T09:51:08.929Z,101318.47
2022-11-10T09:53:57.026Z,101317.47
2022-11-10T09:56:42.083Z,101313.06
2022-11-10T09:59:29.884Z,101307.03
2022-11-10T10:02:24.077Z,101306.28
2022-11-10T10:05:18.226Z,101308.13
2022-11-10T10:08:03.304Z,101299.13
2022-11-10T10:10:54.623Z,101309.78
2022-11-10T10:14:24.330Z,101310.84
2022-11-10T10:17:40.933Z,101311.00
2022-11-10T10:20:39.830Z,101302.19
2022-11-10T10:23:54.435Z,101311.00
2022-11-10T10:26:41.775Z,101304.72
2022-11-10T10:29:41.110Z,101317.03
2022-11-10T10:32:26.835Z,101313.34
2022-11-10T10:35:16.640Z,101321.25
2022-11-10T10:38:04.476Z,101323.00
2022-11-10T10:40:51.675Z,101325.63
2022-11-10T10:43:36.834Z,101331.75
2022-11-10T10:46:28.407Z,101326.34
2022-11-10T10:49:28.988Z,101324.50
2022-11-10T10:52:16.982Z,101326.22
2022-11-10T10:55:07.246Z,101329.69
2022-11-10T10:57:59.048Z,101338.41
2022-11-10T11:00:46.936Z,101342.78
2022-11-10T11:03:34.588Z,101336.50
2022-11-10T11:06:22.884Z,101334.69
2022-11-10T11:09:23.935Z,101341.81
2022-11-10T11:12:25.355Z,101339.19
2022-11-10T11:15:30.454Z,101341.91
2022-11-10T11:18:18.357Z,101349.09
2022-11-10T11:21:37.396Z,101350.97
2022-11-10T11:24:45.867Z,101344.81
2022-11-10T11:27:45.239Z,101354.59
2022-11-10T11:30:51.933Z,101362.66
2022-11-10T11:33:42.929Z,101356.50
2022-11-10T11:36:52.061Z,101358.34
2022-11-10T11:39:46.010Z,101354.78
2022-11-10T11:43:02.117Z,101362.78
2022-11-10T11:46:23.798Z,101362.84
2022-11-10T11:49:23.965Z,101364.72
2022-11-10T11:52:43.159Z,101359.47
2022-11-10T11:55:35.036Z,101366.66
2022-11-10T11:58:44.509Z,101365.81
2022-11-10T12:01:38.482Z,101364.22
2022-11-10T12:04:53.147Z,101370.53
2022-11-10T12:07:50.791Z,101368.81
2022-11-10T12:11:23.671Z,101360.91
2022-11-10T12:14:23.091Z,101366.25
2022-11-10T12:17:35.424Z,101373.31
2022-11-10T12:20:37.357Z,101368.88
2022-11-10T12:23:46.587Z,101382.19
2022-11-10T12:26:43.475Z,101369.72
2022-11-10T12:29:49.980Z,101378.56
2022-11-10T12:32:43.056Z,101384.78
2022-11-10T12:35:33.946Z,101383.88
2022-11-10T12:38:36.008Z,101393.59
2022-11-10T12:41:21.563Z,101388.28
2022-11-10T12:44:41.853Z,101394.44
2022-11-10T12:47:34.046Z,101399.88
2022-11-10T12:50:44.560Z,101399.94
2022-11-10T12:53:32.675Z,101402.59
2022-11-10T12:56:24.974Z,101411.56
2022-11-10T12:59:21.187Z,101405.50
2022-11-10T13:02:19.564Z,101415.25
2022-11-10T13:05:24.428Z,101427.66
2022-11-10T13:08:15.352Z,101425.91
2022-11-10T13:11:11.236Z,101425.91
2022-11-10T13:13:59.941Z,101425.84
2022-11-10T13:16:49.973Z,101416.09
2022-11-10T13:19:38.955Z,101418.75
2022-11-10T13:22:40.794Z,101417.81
2022-11-10T13:25:53.446Z,101412.50
2022-11-10T13:28:47.724Z,101421.41
2022-11-10T13:31:32.584Z,101425.75
2022-11-10T13:34:31.771Z,101431.97
2022-11-10T13:37:35.163Z,101434.63
2022-11-10T13:40:29.487Z,101439.03
2022-11-10T13:43:17.581Z,101436.31
2022-11-10T13:46:04.031Z,101438.06
2022-11-10T13:49:06.292Z,101443.38
2022-11-10T13:52:22.117Z,101450.44
2022-11-10T13:55:26.256Z,101456.66
2022-11-10T13:58:23.193Z,101456.59
2022-11-10T14:01:17.565Z,101455.69
2022-11-10T14:04:04.736Z,101454.81
2022-11-10T14:06:54.949Z,101453.91
2022-11-10T14:09:44.603Z,101452.09
2022-11-10T14:12:39.085Z,101446.75
2022-11-10T14:15:41.636Z,101452.97
2022-11-10T14:18:58.175Z,101454.72
2022-11-10T14:21:58.023Z,101455.56
2022-11-10T14:25:03.471Z,101460.03
2022-11-10T14:27:49.862Z,101454.66
2022-11-10T14:30:37.097Z,101458.19
2022-11-10T14:33:24.874Z,101460.84
2022-11-10T14:36:13.609Z,101460.78
2022-11-10T14:38:59.648Z,101466.94
2022-11-10T14:41:49.324Z,101473.09
2022-11-10T14:44:35.256Z,101479.25
2022-11-10T14:47:27.694Z,101478.34
2022-11-10T14:50:34.294Z,101485.38
2022-11-10T14:53:25.693Z,101488.00
2022-11-10T14:56:18.042Z,101487.91
2022-11-10T14:59:06.085Z,101495.84
2022-11-10T15:01:54.820Z,101498.41
2022-11-10T15:04:43.054Z,101496.59
2022-11-10T15:07:31.284Z,101505.41
2022-11-10T15:10:27.955Z,101517.72
2022-11-10T15:13:13.132Z,101515.00
2022-11-10T15:16:21.448Z,101518.47
2022-11-10T15:19:35.599Z,101518.38
2022-11-10T15:22:34.966Z,101521.00
2022-11-10T15:25:22.975Z,101519.16
2022-11-10T15:28:13.917Z,101524.44
2022-11-10T15:31:03.854Z,101520.84
2022-11-10T15:33:53.880Z,101516.50
2022-11-10T15:36:41.627Z,101520.16
2022-11-10T15:39:27.768Z,101516.66
2022-11-10T15:42:19.221Z,101516.75
2022-11-10T15:45:05.065Z,101510.53
2022-11-10T15:47:51.623Z,101510.50
2022-11-10T15:50:36.896Z,101495.38
2022-11-10T15:53:35.763Z,101507.69
2022-11-10T15:56:23.663Z,101512.88
2022-11-10T15:59:10.427Z,101514.44
2022-11-10T16:01:56.062Z,101504.59
2022-11-10T16:04:41.241Z,101521.31
2022-11-10T16:07:55.452Z,101524.72
2022-11-10T16:10:51.471Z,101527.28
2022-11-10T16:13:38.637Z,101516.53
2022-11-10T16:16:25.935Z,101520.84
2022-11-10T16:20:15.821Z,101525.19
2022-11-10T16:22:26.188Z,101529.53
2022-11-10T16:25:25.209Z,101540.13
2022-11-10T16:28:28.191Z,101541.88
2022-11-10T16:31:15.692Z,101544.47
2022-11-10T16:34:00.970Z,101554.97
2022-11-10T16:37:02.192Z,101565.53
2022-11-10T16:39:47.834Z,101567.25
2022-11-10T16:42:32.905Z,101570.72
2022-11-10T16:45:20.907Z,101567.06
2022-11-10T16:48:11.845Z,101558.16
2022-11-10T16:51:36.337Z,101565.16
2022-11-10T16:54:21.712Z,101588.09
2022-11-10T16:57:12.997Z,101584.50
2022-11-10T16:59:58.247Z,101594.19
2022-11-10T17:02:51.182Z,101585.28
2022-11-10T17:05:37.117Z,101580.75
2022-11-10T17:08:26.015Z,101562.06
2022-11-10T17:11:11.135Z,101563.75
2022-11-10T17:13:56.078Z,101566.38
2022-11-10T17:16:44.252Z,101575.09
2022-11-10T17:19:29.562Z,101596.28
2022-11-10T17:22:17.663Z,101600.63
2022-11-10T17:25:04.677Z,101604.97
2022-11-10T17:27:49.800Z,101606.69
2022-11-10T17:30:35.211Z,101610.13
2022-11-10T17:33:21.067Z,101610.97
2022-11-10T17:36:16.354Z,101613.53
2022-11-10T17:39:01.899Z,101610.03
2022-11-10T17:41:47.586Z,101616.09
2022-11-10T17:44:32.644Z,101608.94
2022-11-10T17:47:17.674Z,101615.03
2022-11-10T17:50:03.244Z,101615.75
2022-11-10T17:52:49.613Z,101613.84
2022-11-10T17:55:36.878Z,101609.34
2022-11-10T17:58:22.063Z,101620.75
2022-11-10T18:01:18.732Z,101610.00
2022-11-10T18:04:04.336Z,101604.69
2022-11-10T18:06:49.362Z,101606.41
2022-11-10T18:09:37.425Z,101608.19
2022-11-10T18:12:27.784Z,101616.13
2022-11-10T18:15:16.265Z,101610.78
2022-11-10T18:18:01.444Z,101612.41
2022-11-10T18:20:46.713Z,101614.97
2022-11-10T18:23:32.134Z,101615.75
2022-11-10T18:26:17.826Z,101621.00
2022-11-10T18:29:02.939Z,101628.03
2022-11-10T18:31:48.006Z,101632.41
2022-11-10T18:34:33.203Z,101628.78
2022-11-10T18:37:19.214Z,101626.09
2022-11-10T18:40:04.850Z,101635.75
2022-11-10T18:42:50.519Z,101633.06
2022-11-10T18:45:36.152Z,101631.25
2022-11-10T18:48:25.577Z,101617.88
2022-11-10T18:51:15.087Z,101628.41
2022-11-10T18:54:00.614Z,101626.53
2022-11-10T18:56:45.520Z,101616.78
2022-11-10T18:59:30.637Z,101623.78
2022-11-10T19:02:15.540Z,101630.81
2022-11-10T19:05:02.491Z,101629.88
2022-11-10T19:07:47.445Z,101628.00
2022-11-10T19:10:32.531Z,101633.22
2022-11-10T19:13:17.618Z,101640.25
2022-11-10T19:16:08.445Z,101626.94
2022-11-10T19:18:53.388Z,101641.03
2022-11-10T19:21:38.975Z,101634.81
2022-11-10T19:24:28.055Z,101628.59
2022-11-10T19:27:14.089Z,101642.66
2022-11-10T19:29:59.209Z,101646.97
2022-11-10T19:32:44.294Z,101639.00
2022-11-10T19:35:30.062Z,101644.22
2022-11-10T19:38:15.503Z,101645.91
2022-11-10T19:41:08.290Z,101640.50
2022-11-10T19:43:54.375Z,101651.94
2022-11-10T19:46:39.721Z,101657.19
2022-11-10T19:49:25.063Z,101656.13
2022-11-10T19:52:10.245Z,101667.56
2022-11-10T19:54:55.815Z,101665.75
2022-11-10T19:57:41.049Z,101671.00
2022-11-10T20:00:26.512Z,101664.88
2022-11-10T20:03:11.773Z,101674.50
2022-11-10T20:05:59.552Z,101675.31
2022-11-10T20:08:44.991Z,101682.25
2022-11-10T20:11:30.276Z,101675.97
2022-11-10T20:14:15.305Z,101677.59
2022-11-10T20:17:00.494Z,101678.34
2022-11-10T20:19:45.478Z,101685.34
2022-11-10T20:22:30.560Z,101690.59
2022-11-10T20:25:16.066Z,101694.88
2022-11-10T20:28:03.473Z,101708.09
2022-11-10T20:30:48.725Z,101718.72
2022-11-10T20:33:34.728Z,101717.81
2022-11-10T20:36:23.883Z,101714.19
2022-11-10T20:39:08.938Z,101713.25
2022-11-10T20:41:54.561Z,101707.88
2022-11-10T20:44:40.658Z,101709.56
2022-11-10T20:47:28.010Z,101711.25
2022-11-10T20:50:16.397Z,101694.44
2022-11-10T20:53:05.882Z,101705.88
2022-11-10T20:56:02.094Z,101692.56
2022-11-10T20:58:49.021Z,101686.34
2022-11-10T21:01:34.308Z,101698.59
2022-11-10T21:04:19.902Z,101693.28
2022-11-10T21:07:05.444Z,101700.31
2022-11-10T21:09:51.154Z,101715.34
2022-11-10T21:12:51.261Z,101711.66
2022-11-10T21:15:39.317Z,101712.53
2022-11-10T21:18:27.473Z,101713.31
2022-11-10T21:21:21.834Z,101708.97
2022-11-10T21:24:08.361Z,101710.66
2022-11-10T21:26:54.862Z,101705.28
2022-11-10T21:29:40.315Z,101705.22
2022-11-10T21:32:25.781Z,101707.84
2022-11-10T21:35:11.069Z,101715.81
2022-11-10T21:37:56.284Z,101720.22
2022-11-10T21:40:41.250Z,101714.00
2022-11-10T21:43:26.330Z,101722.84
2022-11-10T21:46:11.988Z,101732.53
2022-11-10T21:48:56.944Z,101736.94
2022-11-10T21:51:42.691Z,101733.44
2022-11-10T21:54:27.947Z,101736.06
2022-11-10T21:57:16.727Z,101733.34
2022-11-10T22:00:02.269Z,101735.94
2022-11-10T22:02:47.640Z,101738.53
2022-11-10T22:05:33.823Z,101735.69
2022-11-10T22:08:21.882Z,101742.72
2022-11-10T22:11:35.006Z,101746.22
2022-11-10T22:14:38.631Z,101748.00
2022-11-10T22:17:43.183Z,101766.50
2022-11-10T22:20:29.268Z,101750.63
2022-11-10T22:23:14.367Z,101761.16
2022-11-10T22:25:59.683Z,101762.91
2022-11-10T22:28:45.608Z,101768.16
2022-11-10T22:31:33.310Z,101771.59
2022-11-10T22:34:19.483Z,101774.13
2022-11-10T22:37:04.846Z,101774.13
2022-11-10T22:40:08.586Z,101761.66
2022-11-10T22:43:12.741Z,101754.47
2022-11-10T22:45:58.355Z,101757.00
2022-11-10T22:48:46.445Z,101761.34
2022-11-10T22:51:32.461Z,101769.28
2022-11-10T22:54:20.352Z,101772.75
2022-11-10T22:57:05.603Z,101783.22
2022-11-10T22:59:50.758Z,101778.78
2022-11-10T23:02:37.104Z,101781.31
2022-11-10T23:05:22.540Z,101778.72
2022-11-10T23:08:07.792Z,101779.56
2022-11-10T23:10:58.456Z,101776.03
2022-11-10T23:13:43.491Z,101776.03
2022-11-10T23:16:32.594Z,101774.25
2022-11-10T23:19:17.869Z,101778.56
2022-11-10T23:22:02.947Z,101782.94
2022-11-10T23:24:49.097Z,101791.78
2022-11-10T23:27:37.268Z,101782.09
2022-11-10T23:30:24.330Z,101782.09
2022-11-10T23:38:29.905Z,101786.31
2022-11-10T23:41:17.778Z,101791.47
2022-11-10T23:44:02.541Z,101794.06
2022-11-10T23:46:47.320Z,101791.31
2022-11-10T23:49:31.896Z,101804.63
2022-11-10T23:52:16.336Z,101782.56
2022-11-10T23:57:51.660Z,101784.16
